Time;durP1;ratioP1;P1;durP2;ratioP2;P2;SDS_P1;SDS_P2;PMS_P1;PMS_P2;Temp;Humidity;BMP_temperature;BMP_pressure;BME280_temperature;BME280_humidity;BME280_pressure;Samples;Min_cycle;Max_cycle;Signal;HPM_P1;HPM_P2
2023/01/11 00:00:25;;;;;;;3.10;1.30;;;7.40;74.30;;;;;;5031881;28;20428;-76
2023/01/11 00:02:59;;;;;;;4.60;1.63;;;7.40;74.50;;;;;;5028730;28;20436;-74
2023/01/11 00:05:25;;;;;;;3.10;1.30;;;7.40;74.30;;;;;;5025112;28;20467;-75
2023/01/11 00:07:50;;;;;;;3.60;1.30;;;7.40;74.30;;;;;;5030884;28;20455;-75
2023/01/11 00:10:17;;;;;;;2.63;1.40;;;7.40;74.50;;;;;;5024442;28;20464;-77
2023/01/11 00:12:43;;;;;;;3.60;1.50;;;7.40;74.60;;;;;;5027088;28;20423;-76
2023/01/11 00:15:09;;;;;;;2.27;1.40;;;7.40;74.50;;;;;;5032037;28;20420;-76
2023/01/11 00:17:35;;;;;;;3.63;1.37;;;7.40;74.60;;;;;;5026978;28;20534;-75
2023/01/11 00:20:00;;;;;;;1.93;1.10;;;7.40;74.80;;;;;;5032437;28;20498;-77
2023/01/11 00:22:26;;;;;;;3.40;1.60;;;7.50;74.80;;;;;;5025502;28;20645;-76
2023/01/11 00:24:52;;;;;;;4.63;1.40;;;7.50;74.90;;;;;;5027642;28;20235;-76
2023/01/11 00:27:17;;;;;;;1.80;1.30;;;7.50;74.90;;;;;;5022951;28;20209;-75
2023/01/11 00:29:43;;;;;;;2.13;1.10;;;7.60;75.10;;;;;;5030094;28;20178;-74
2023/01/11 00:32:09;;;;;;;4.00;1.70;;;7.60;75.20;;;;;;5031878;28;20205;-75
2023/01/11 00:34:34;;;;;;;1.93;1.10;;;7.60;75.70;;;;;;5028104;28;20173;-74
2023/01/11 00:37:00;;;;;;;1.70;1.30;;;7.60;75.80;;;;;;5028838;28;20216;-76
2023/01/11 00:39:26;;;;;;;4.40;1.30;;;7.70;75.80;;;;;;5030526;28;20188;-75
2023/01/11 00:50:04;;;;;;;1.17;1.10;;;7.80;76.10;;;;;;5025632;28;21051;-74
2023/01/11 00:52:29;;;;;;;5.73;1.63;;;7.80;76.10;;;;;;5024513;28;20436;-77
2023/01/11 00:54:55;;;;;;;2.90;1.20;;;7.80;76.20;;;;;;5027652;28;20190;-74
2023/01/11 00:57:21;;;;;;;2.50;1.10;;;7.80;76.20;;;;;;5026004;28;20221;-74
2023/01/11 00:59:46;;;;;;;3.23;1.10;;;7.90;76.20;;;;;;5029156;28;20260;-76
2023/01/11 01:02:12;;;;;;;1.77;1.00;;;7.90;76.20;;;;;;5030178;28;20201;-74
2023/01/11 01:04:38;;;;;;;2.37;1.30;;;8.00;76.10;;;;;;5031566;28;20187;-76
2023/01/11 01:07:05;;;;;;;5.43;1.40;;;8.00;76.20;;;;;;5029892;28;20845;-76
2023/01/11 01:09:31;;;;;;;2.87;1.30;;;8.00;76.40;;;;;;5023926;28;20416;-76
2023/01/11 01:11:57;;;;;;;5.07;1.13;;;8.00;76.40;;;;;;5025399;28;20868;-78
2023/01/11 01:14:27;;;;;;;3.00;1.00;;;8.10;76.50;;;;;;5028965;28;20416;-77
2023/01/11 01:16:55;;;;;;;2.20;1.20;;;8.10;76.70;;;;;;5017966;28;20801;-75
2023/01/11 01:19:21;;;;;;;2.73;0.83;;;8.10;76.70;;;;;;5028925;28;20424;-75
2023/01/11 01:21:48;;;;;;;7.97;1.63;;;8.10;77.10;;;;;;5022633;28;20542;-75
2023/01/11 01:24:14;;;;;;;1.50;1.00;;;8.10;77.10;;;;;;5030363;28;20420;-76
2023/01/11 01:26:40;;;;;;;2.97;1.20;;;8.10;77.40;;;;;;5023731;28;20827;-75
2023/01/11 01:29:06;;;;;;;2.70;1.40;;;8.10;77.60;;;;;;5028944;28;20416;-76
2023/01/11 01:31:31;;;;;;;2.03;1.00;;;8.20;77.60;;;;;;5027019;28;21036;-75
2023/01/11 01:33:57;;;;;;;2.83;1.20;;;8.10;77.70;;;;;;5028581;28;20264;-74
2023/01/11 01:36:23;;;;;;;1.90;0.83;;;8.10;77.80;;;;;;5022248;28;20210;-79
2023/01/11 01:38:48;;;;;;;1.63;1.17;;;8.10;78.00;;;;;;5021705;28;20235;-78
2023/01/11 01:41:14;;;;;;;2.10;1.23;;;8.10;78.00;;;;;;5032547;28;20272;-79
2023/01/11 01:43:52;;;;;;;3.23;1.27;;;8.10;78.10;;;;;;5023914;28;20299;-79
2023/01/11 01:46:19;;;;;;;1.40;0.80;;;8.10;78.10;;;;;;5022940;28;20918;-78
2023/01/11 01:48:53;;;;;;;1.00;0.90;;;8.10;78.30;;;;;;5031613;28;20450;-77
2023/01/11 01:51:46;;;;;;;3.67;1.10;;;8.10;78.40;;;;;;5027738;28;20541;-79
2023/01/11 01:54:17;;;;;;;2.20;1.10;;;8.10;78.60;;;;;;5030285;28;20424;-76
2023/01/11 01:56:51;;;;;;;2.60;1.17;;;8.10;78.60;;;;;;5022513;28;20514;-77
2023/01/11 01:59:20;;;;;;;2.77;1.30;;;8.10;78.70;;;;;;5030767;28;20416;-79
2023/01/11 02:01:46;;;;;;;3.10;1.53;;;8.20;78.90;;;;;;5027856;28;20524;-76
2023/01/11 02:04:25;;;;;;;1.70;1.00;;;8.20;78.70;;;;;;5023164;28;20550;-77
2023/01/11 02:06:59;;;;;;;1.83;1.13;;;8.20;78.70;;;;;;5028386;28;20479;-77
2023/01/11 02:09:35;;;;;;;1.23;0.80;;;8.20;78.90;;;;;;5035686;28;20498;-77
2023/01/11 02:12:02;;;;;;;2.13;0.97;;;8.20;78.90;;;;;;5041941;28;20428;-77
2023/01/11 02:14:31;;;;;;;1.40;0.80;;;8.20;79.00;;;;;;5036655;28;20465;-77
2023/01/11 02:16:57;;;;;;;1.90;1.00;;;8.20;79.00;;;;;;5032563;28;20464;-76
2023/01/11 02:20:04;;;;;;;2.33;0.90;;;8.30;79.30;;;;;;5032822;28;20746;-77
2023/01/11 02:22:49;;;;;;;1.40;0.83;;;8.30;79.30;;;;;;5037722;28;20483;-78
2023/01/11 02:26:05;;;;;;;1.50;1.00;;;8.30;79.30;;;;;;5035542;28;20462;-78
2023/01/11 02:28:33;;;;;;;2.13;1.10;;;8.30;79.50;;;;;;5018954;28;20447;-76
2023/01/11 02:31:16;;;;;;;4.40;0.93;;;8.30;79.70;;;;;;5044754;28;20470;-77
2023/01/11 02:34:00;;;;;;;3.63;1.13;;;8.30;79.90;;;;;;5040864;28;20416;-75
2023/01/11 02:36:53;;;;;;;1.77;0.97;;;8.30;80.20;;;;;;5036208;28;20525;-75
2023/01/11 02:39:26;;;;;;;1.40;0.90;;;8.30;80.30;;;;;;5033416;28;20495;-77
2023/01/11 02:45:21;;;;;;;1.73;1.00;;;8.40;80.30;;;;;;5037780;28;20423;-74
2023/01/11 02:47:59;;;;;;;3.57;1.10;;;8.40;80.50;;;;;;5037283;28;20451;-77
2023/01/11 02:50:52;;;;;;;1.40;0.90;;;8.40;80.60;;;;;;5042385;28;20473;-77
2023/01/11 02:53:41;;;;;;;2.37;0.83;;;8.40;80.90;;;;;;5036951;28;20900;-77
2023/01/11 02:56:12;;;;;;;1.33;0.80;;;8.40;81.20;;;;;;5037373;28;20459;-78
2023/01/11 02:58:41;;;;;;;2.80;1.00;;;8.40;81.20;;;;;;5040051;28;20458;-77
2023/01/11 03:01:07;;;;;;;2.03;0.87;;;8.50;81.50;;;;;;5038765;28;20428;-77
2023/01/11 03:03:33;;;;;;;2.33;0.90;;;8.50;81.50;;;;;;5041978;28;20427;-75
2023/01/11 03:06:05;;;;;;;1.90;0.97;;;8.60;81.50;;;;;;5042104;28;20238;-75
2023/01/11 03:09:11;;;;;;;1.00;0.90;;;8.70;81.20;;;;;;5043092;28;20497;-76
2023/01/11 03:14:48;;;;;;;1.13;0.80;;;8.80;81.10;;;;;;5046175;28;20459;-75
2023/01/11 03:17:52;;;;;;;1.07;0.73;;;8.80;81.10;;;;;;5047564;28;20472;-75
2023/01/11 03:20:27;;;;;;;2.50;0.80;;;8.90;81.10;;;;;;5035349;28;20424;-75
2023/01/11 03:22:56;;;;;;;1.67;0.80;;;8.90;81.10;;;;;;5047977;28;20427;-74
2023/01/11 03:25:39;;;;;;;1.67;0.80;;;8.90;81.10;;;;;;5050582;28;20450;-76
2023/01/11 03:28:18;;;;;;;8.10;1.37;;;8.90;81.20;;;;;;5035693;28;20838;-77
2023/01/11 03:30:54;;;;;;;1.23;0.80;;;8.90;81.20;;;;;;5031403;28;21121;-76
2023/01/11 03:33:38;;;;;;;3.30;0.80;;;8.90;81.40;;;;;;5027359;28;20436;-78
2023/01/11 03:36:32;;;;;;;1.60;0.80;;;8.80;81.50;;;;;;5029371;28;21045;-77
2023/01/11 03:39:06;;;;;;;1.73;0.80;;;8.90;81.50;;;;;;5036028;28;20416;-77
2023/01/11 03:41:35;;;;;;;0.73;0.60;;;8.90;81.40;;;;;;5028715;28;20432;-76
2023/01/11 03:44:04;;;;;;;0.97;0.80;;;8.90;81.50;;;;;;5043859;28;20444;-75
2023/01/11 03:46:35;;;;;;;1.73;0.87;;;8.90;81.50;;;;;;5031280;28;20452;-74
2023/01/11 03:49:18;;;;;;;0.93;0.80;;;8.90;81.70;;;;;;5029289;28;20452;-76
2023/01/11 03:51:46;;;;;;;1.67;1.03;;;8.90;81.70;;;;;;5028281;28;20474;-76
2023/01/11 03:54:15;;;;;;;4.77;1.17;;;8.90;81.80;;;;;;5039860;28;20428;-76
2023/01/11 03:57:06;;;;;;;0.60;0.60;;;8.90;81.80;;;;;;5034386;28;20490;-77
2023/01/11 03:59:32;;;;;;;1.30;1.00;;;8.80;81.90;;;;;;5047497;28;20428;-75
2023/01/11 04:01:58;;;;;;;1.57;0.90;;;8.80;82.10;;;;;;5047847;28;20423;-76
2023/01/11 04:04:24;;;;;;;2.47;0.83;;;8.90;82.10;;;;;;5047094;28;20431;-75
2023/01/11 04:06:49;;;;;;;0.90;0.70;;;8.80;82.10;;;;;;5035393;28;20551;-77
2023/01/11 04:09:15;;;;;;;3.50;0.87;;;8.90;82.10;;;;;;5028697;28;20190;-76
2023/01/11 04:11:41;;;;;;;0.90;0.60;;;8.90;82.10;;;;;;5031847;28;20204;-76
2023/01/11 04:14:06;;;;;;;1.63;1.53;;;9.00;81.80;;;;;;5034003;28;20288;-78
2023/01/11 04:16:32;;;;;;;1.70;1.07;;;9.00;81.80;;;;;;5026719;28;20201;-76
2023/01/11 04:18:57;;;;;;;0.70;0.60;;;9.00;81.70;;;;;;5026705;28;20194;-78
2023/01/11 04:21:23;;;;;;;1.10;0.70;;;9.10;81.50;;;;;;5031886;28;20208;-77
2023/01/11 04:23:49;;;;;;;1.57;0.83;;;9.10;81.50;;;;;;5027722;28;20189;-77
2023/01/11 04:26:16;;;;;;;1.50;0.87;;;9.10;81.50;;;;;;5027253;28;20681;-79
2023/01/11 04:28:43;;;;;;;0.90;0.70;;;9.10;81.70;;;;;;5032243;28;20771;-78
2023/01/11 04:31:09;;;;;;;0.83;0.60;;;9.20;81.50;;;;;;5035109;28;20466;-77
2023/01/11 04:33:34;;;;;;;1.17;0.80;;;9.10;81.70;;;;;;5027247;28;20428;-77
2023/01/11 04:36:04;;;;;;;1.77;0.60;;;9.10;81.90;;;;;;5029737;28;20301;-77
2023/01/11 04:38:30;;;;;;;1.17;0.60;;;9.10;82.10;;;;;;5028145;28;20189;-77
2023/01/11 04:42:17;;;;;;;1.40;0.87;;;9.10;82.20;;;;;;5027688;28;20427;-75
2023/01/11 04:43:41;;;;;;;1.27;0.60;;;9.10;82.40;;;;;;5031486;28;20185;-78
2023/01/11 04:46:09;;;;;;;1.20;0.80;;;9.00;82.50;;;;;;5025920;28;20464;-77
2023/01/11 04:48:35;;;;;;;1.97;0.93;;;9.10;82.70;;;;;;5029888;28;20199;-76
2023/01/11 04:51:01;;;;;;;1.00;0.70;;;9.00;82.80;;;;;;5037060;28;20550;-76
2023/01/11 04:53:27;;;;;;;1.47;0.60;;;9.00;83.10;;;;;;5035900;28;20464;-77
2023/01/11 04:55:52;;;;;;;3.10;0.70;;;9.00;83.30;;;;;;5036720;28;20211;-77
2023/01/11 04:58:18;;;;;;;1.07;0.70;;;9.00;83.40;;;;;;5033494;28;20243;-77
2023/01/11 05:00:43;;;;;;;0.93;0.60;;;9.00;83.70;;;;;;5031069;28;20185;-78
2023/01/11 05:03:09;;;;;;;1.30;0.70;;;8.90;84.10;;;;;;5027636;28;20186;-78
2023/01/11 05:05:34;;;;;;;1.43;0.77;;;8.90;84.40;;;;;;5029940;28;20263;-77
2023/01/11 05:08:00;;;;;;;0.90;0.67;;;9.00;84.70;;;;;;5031472;28;20597;-76
2023/01/11 05:10:25;;;;;;;1.13;0.70;;;8.90;85.00;;;;;;5024516;28;20280;-77
2023/01/11 05:12:51;;;;;;;3.47;0.70;;;9.00;85.30;;;;;;5026392;28;20185;-77
2023/01/11 05:15:17;;;;;;;1.73;0.60;;;9.00;85.30;;;;;;5028164;28;20177;-77
2023/01/11 05:17:42;;;;;;;2.40;0.73;;;9.00;85.00;;;;;;5025972;28;20216;-77
2023/01/11 05:20:09;;;;;;;1.13;0.60;;;9.00;85.30;;;;;;5025466;28;20855;-75
2023/01/11 05:22:34;;;;;;;1.07;0.73;;;9.00;85.50;;;;;;5027514;28;20564;-76
2023/01/11 05:25:00;;;;;;;1.10;0.80;;;9.10;85.30;;;;;;5031080;28;20438;-77
2023/01/11 05:27:25;;;;;;;0.80;0.70;;;9.10;85.20;;;;;;5021622;28;20316;-77
2023/01/11 05:29:51;;;;;;;1.67;0.80;;;9.00;85.20;;;;;;5029894;28;20663;-78
2023/01/11 05:32:16;;;;;;;2.60;1.13;;;9.10;85.30;;;;;;5031140;28;20185;-79
2023/01/11 05:34:42;;;;;;;1.27;0.70;;;9.00;85.30;;;;;;5032071;28;20200;-78
2023/01/11 05:37:07;;;;;;;1.20;0.90;;;9.10;85.30;;;;;;5024071;28;20251;-77
2023/01/11 05:39:33;;;;;;;1.00;0.70;;;9.10;85.30;;;;;;5031747;28;20181;-77
2023/01/11 05:41:59;;;;;;;1.70;0.90;;;9.10;85.30;;;;;;5026834;28;20177;-77
2023/01/11 05:47:08;;;;;;;1.20;0.67;;;9.10;85.30;;;;;;5027281;28;20632;-78
2023/01/11 05:49:34;;;;;;;1.53;0.90;;;9.00;85.60;;;;;;5032112;28;20435;-77
2023/01/11 05:52:00;;;;;;;1.17;1.07;;;9.00;85.90;;;;;;5033780;28;20239;-76
2023/01/11 05:54:25;;;;;;;5.13;0.80;;;9.00;85.90;;;;;;5033855;28;20660;-77
2023/01/11 05:56:51;;;;;;;1.63;0.90;;;9.10;85.70;;;;;;5033454;28;20212;-77
2023/01/11 05:59:16;;;;;;;3.43;1.10;;;9.10;85.60;;;;;;5035716;28;20177;-78
2023/01/11 06:01:42;;;;;;;6.67;1.00;;;9.00;85.60;;;;;;5033415;28;20196;-76
2023/01/11 06:04:08;;;;;;;1.53;0.90;;;9.00;85.90;;;;;;5036328;28;20207;-77
2023/01/11 06:06:33;;;;;;;1.87;0.97;;;9.00;85.90;;;;;;5033906;28;20205;-76
2023/01/11 06:08:59;;;;;;;1.43;0.90;;;9.00;86.00;;;;;;5049467;28;20261;-76
2023/01/11 06:11:25;;;;;;;1.60;0.90;;;9.00;86.00;;;;;;5049433;28;20216;-75
2023/01/11 06:13:50;;;;;;;1.80;0.97;;;9.00;86.20;;;;;;5049995;28;20193;-77
2023/01/11 06:16:18;;;;;;;0.90;0.80;;;9.00;86.20;;;;;;5049904;28;20201;-77
2023/01/11 06:18:47;;;;;;;1.23;0.70;;;9.00;86.20;;;;;;5046307;28;20189;-77
2023/01/11 06:21:14;;;;;;;1.57;0.90;;;9.10;86.30;;;;;;5047203;28;20427;-77
2023/01/11 06:23:42;;;;;;;1.87;0.70;;;9.10;86.20;;;;;;5043295;28;20435;-76
2023/01/11 06:26:13;;;;;;;1.43;0.93;;;9.20;86.00;;;;;;5035285;28;20460;-76
2023/01/11 06:28:40;;;;;;;1.60;1.03;;;9.20;85.90;;;;;;5032864;28;20821;-77
2023/01/11 06:31:06;;;;;;;1.33;0.80;;;9.30;85.70;;;;;;5033662;28;20469;-77
2023/01/11 06:33:32;;;;;;;2.43;1.60;;;9.30;85.60;;;;;;5034771;28;20412;-76
2023/01/11 06:36:01;;;;;;;1.13;1.00;;;9.30;85.50;;;;;;5033214;28;20617;-77
2023/01/11 06:38:26;;;;;;;1.53;1.10;;;9.30;85.60;;;;;;5032272;28;20495;-77
2023/01/11 06:40:54;;;;;;;1.63;1.10;;;9.30;85.60;;;;;;5049100;28;20424;-74
2023/01/11 06:43:21;;;;;;;4.07;1.10;;;9.30;85.60;;;;;;5032423;28;20201;-77
2023/01/11 06:45:48;;;;;;;1.77;1.10;;;9.30;85.50;;;;;;5032900;28;20664;-76
2023/01/11 06:48:14;;;;;;;1.37;0.80;;;9.30;85.60;;;;;;5032699;28;20523;-76
2023/01/11 06:50:39;;;;;;;1.73;1.00;;;9.30;85.60;;;;;;5033776;28;20847;-77
2023/01/11 06:53:05;;;;;;;2.00;1.30;;;9.40;85.60;;;;;;5031861;28;20468;-76
2023/01/11 06:55:31;;;;;;;2.50;1.00;;;9.40;85.50;;;;;;5032653;28;20269;-76
2023/01/11 06:57:57;;;;;;;1.20;1.00;;;9.40;85.20;;;;;;5031973;28;20206;-77
2023/01/11 07:00:23;;;;;;;2.23;0.87;;;9.50;85.00;;;;;;5032116;28;20485;-77
2023/01/11 07:02:48;;;;;;;1.13;0.80;;;9.50;84.70;;;;;;5033284;28;20185;-77
2023/01/11 07:05:16;;;;;;;2.03;1.07;;;9.50;84.90;;;;;;5032823;28;20530;-77
2023/01/11 07:07:42;;;;;;;6.40;0.97;;;9.50;84.70;;;;;;5022746;28;20463;-76
2023/01/11 07:10:11;;;;;;;1.97;1.47;;;9.60;84.60;;;;;;5031809;28;20473;-75
2023/01/11 07:12:37;;;;;;;1.50;0.90;;;9.60;84.40;;;;;;5031492;28;20424;-75
2023/01/11 07:15:04;;;;;;;2.53;1.40;;;9.60;84.40;;;;;;5035881;28;20499;-76
2023/01/11 07:17:30;;;;;;;2.77;1.67;;;9.60;84.40;;;;;;5029766;28;20463;-77
2023/01/11 07:19:56;;;;;;;2.30;0.93;;;9.50;84.60;;;;;;5033416;28;20518;-76
2023/01/11 07:22:22;;;;;;;3.07;1.40;;;9.50;84.60;;;;;;5031738;28;20471;-77
2023/01/11 07:24:48;;;;;;;2.60;1.03;;;9.50;84.60;;;;;;5030605;28;20209;-76
2023/01/11 07:27:14;;;;;;;1.47;1.00;;;9.60;84.40;;;;;;5029725;28;20986;-75
2023/01/11 07:29:39;;;;;;;2.63;1.47;;;9.60;84.10;;;;;;5035210;28;20416;-77
2023/01/11 07:32:05;;;;;;;1.43;1.00;;;9.70;83.80;;;;;;5035026;28;20628;-77
2023/01/11 07:34:31;;;;;;;1.70;1.30;;;9.70;84.00;;;;;;5027478;28;20181;-75
2023/01/11 07:36:57;;;;;;;1.57;1.10;;;9.70;83.70;;;;;;5032275;28;20456;-75
2023/01/11 07:39:22;;;;;;;1.20;1.00;;;9.80;83.60;;;;;;5039759;28;20192;-77
2023/01/11 07:44:32;;;;;;;1.87;1.17;;;9.80;83.40;;;;;;5041314;28;20737;-75
2023/01/11 07:46:58;;;;;;;2.20;1.27;;;9.90;83.10;;;;;;5034465;28;20443;-76
2023/01/11 07:49:23;;;;;;;4.40;1.10;;;9.90;83.00;;;;;;5034752;28;20185;-75
2023/01/11 07:51:50;;;;;;;1.40;0.90;;;10.00;82.70;;;;;;5034192;28;20205;-74
2023/01/11 07:54:16;;;;;;;2.83;1.10;;;10.00;82.50;;;;;;5035085;28;20572;-77
2023/01/11 07:56:42;;;;;;;2.47;1.27;;;10.10;82.20;;;;;;5033496;28;20447;-79
2023/01/11 07:59:08;;;;;;;3.30;1.20;;;10.10;82.20;;;;;;5039809;28;20424;-77
2023/01/11 08:01:34;;;;;;;3.13;1.20;;;10.10;82.20;;;;;;5040442;28;20655;-78
2023/01/11 08:03:59;;;;;;;4.27;0.97;;;10.20;82.10;;;;;;5039118;28;20423;-77
2023/01/11 08:06:25;;;;;;;1.33;0.83;;;10.30;81.90;;;;;;5033678;28;20291;-76
2023/01/11 08:08:50;;;;;;;1.70;1.37;;;10.30;81.70;;;;;;5026510;28;20198;-77
2023/01/11 08:16:44;;;;;;;2.73;1.70;;;10.30;81.90;;;;;;5030776;28;20634;-77
2023/01/11 08:19:10;;;;;;;4.20;1.20;;;10.40;81.70;;;;;;5036053;28;20499;-76
2023/01/11 08:21:35;;;;;;;4.63;1.60;;;10.40;81.40;;;;;;5034249;28;20648;-76
2023/01/11 08:24:01;;;;;;;3.60;1.67;;;10.40;81.20;;;;;;5031078;28;20186;-76
2023/01/11 08:26:27;;;;;;;2.60;1.57;;;10.40;81.40;;;;;;5032826;28;20205;-77
2023/01/11 08:28:53;;;;;;;2.33;1.43;;;10.50;81.10;;;;;;5033436;28;20276;-75
2023/01/11 08:31:19;;;;;;;2.17;1.07;;;10.50;80.90;;;;;;5033717;28;20467;-77
2023/01/11 08:33:45;;;;;;;1.60;1.00;;;10.50;80.90;;;;;;5028216;28;20428;-77
2023/01/11 08:36:11;;;;;;;1.63;0.80;;;10.60;80.80;;;;;;5033733;28;20827;-76
2023/01/11 08:38:37;;;;;;;2.67;1.30;;;10.60;80.60;;;;;;5032118;28;20636;-78
2023/01/11 08:41:09;;;;;;;1.07;0.80;;;10.60;80.60;;;;;;5033090;28;20427;-76
2023/01/11 08:43:39;;;;;;;2.87;1.43;;;10.60;80.50;;;;;;5032274;28;20196;-77
2023/01/11 08:46:06;;;;;;;1.13;0.80;;;10.60;80.50;;;;;;5032035;28;20455;-77
2023/01/11 08:48:31;;;;;;;1.60;0.90;;;10.70;80.50;;;;;;5017950;28;20438;-77
2023/01/11 08:50:57;;;;;;;2.47;0.83;;;10.70;80.30;;;;;;5021057;28;20464;-77
2023/01/11 08:53:22;;;;;;;0.97;0.73;;;10.70;80.30;;;;;;5031073;28;20181;-77
2023/01/11 08:55:49;;;;;;;1.70;0.90;;;10.80;80.30;;;;;;5022810;28;20182;-77
2023/01/11 08:58:15;;;;;;;3.30;0.90;;;10.80;80.20;;;;;;5027530;28;20223;-77
2023/01/11 09:00:41;;;;;;;1.77;1.00;;;10.80;80.20;;;;;;5029796;28;20431;-76
2023/01/11 09:03:07;;;;;;;1.20;0.80;;;10.90;80.00;;;;;;5027086;28;20193;-77
2023/01/11 09:05:33;;;;;;;1.40;1.00;;;10.90;80.00;;;;;;5026478;28;20194;-76
2023/01/11 09:07:58;;;;;;;1.20;0.90;;;11.00;79.90;;;;;;5029097;28;20440;-77
2023/01/11 09:10:25;;;;;;;5.30;1.53;;;11.00;79.90;;;;;;5030226;28;20205;-78
2023/01/11 09:12:52;;;;;;;1.87;1.00;;;11.10;79.70;;;;;;5028101;28;20197;-77
2023/01/11 09:15:18;;;;;;;1.43;1.13;;;11.10;79.60;;;;;;5025558;28;20427;-77
2023/01/11 09:17:45;;;;;;;1.33;0.70;;;11.20;79.30;;;;;;5021981;28;20459;-77
2023/01/11 09:20:11;;;;;;;2.60;1.20;;;11.20;79.20;;;;;;5030230;28;20240;-76
2023/01/11 09:22:36;;;;;;;2.83;1.13;;;11.20;79.20;;;;;;5032670;28;20428;-77
2023/01/11 09:25:03;;;;;;;2.10;1.03;;;11.20;79.00;;;;;;5024901;28;20184;-76
2023/01/11 09:27:28;;;;;;;2.80;1.67;;;11.20;78.90;;;;;;5024472;28;20212;-77
2023/01/11 09:29:54;;;;;;;1.83;0.90;;;11.20;78.90;;;;;;5027485;28;20432;-77
2023/01/11 09:32:20;;;;;;;2.70;1.80;;;11.20;78.70;;;;;;5020871;28;20197;-76
2023/01/11 09:34:46;;;;;;;2.27;1.43;;;11.20;78.90;;;;;;5027850;28;20193;-78
2023/01/11 09:37:11;;;;;;;3.10;1.10;;;11.20;78.70;;;;;;5022292;28;20298;-77
2023/01/11 09:39:38;;;;;;;2.23;1.43;;;11.20;78.40;;;;;;5022415;28;20452;-77
2023/01/11 09:42:04;;;;;;;2.03;1.10;;;11.30;78.70;;;;;;5032381;28;20227;-76
2023/01/11 09:44:33;;;;;;;2.20;1.27;;;11.20;78.60;;;;;;5039730;28;20419;-76
2023/01/11 09:47:16;;;;;;;3.10;1.57;;;11.20;78.70;;;;;;5034234;28;20528;-77
2023/01/11 09:49:49;;;;;;;5.33;1.97;;;11.30;78.40;;;;;;5035842;28;20428;-76
2023/01/11 09:52:28;;;;;;;1.90;0.90;;;11.30;78.60;;;;;;5038418;28;21384;-76
2023/01/11 09:54:55;;;;;;;3.67;1.63;;;11.30;78.90;;;;;;5025864;28;20447;-76
2023/01/11 09:57:37;;;;;;;4.70;2.30;;;11.30;78.70;;;;;;5028461;28;20481;-76
2023/01/11 10:00:15;;;;;;;1.93;1.03;;;11.30;78.70;;;;;;5030449;28;20432;-76
2023/01/11 10:02:55;;;;;;;1.53;1.03;;;11.40;78.70;;;;;;5024940;28;20420;-76
2023/01/11 10:06:07;;;;;;;1.40;1.07;;;11.40;78.40;;;;;;5023907;28;20539;-76
2023/01/11 10:08:58;;;;;;;0.80;0.70;;;11.40;78.40;;;;;;5000192;28;20445;-77
2023/01/11 10:11:57;;;;;;;4.30;1.00;;;11.40;78.40;;;;;;5005913;28;20535;-77
2023/01/11 10:14:24;;;;;;;4.33;1.30;;;11.40;78.40;;;;;;5000725;28;20853;-79
2023/01/11 10:16:54;;;;;;;1.17;0.97;;;11.40;78.60;;;;;;5002052;28;20468;-75
2023/01/11 10:19:33;;;;;;;3.27;1.00;;;11.50;78.40;;;;;;4998881;28;20484;-78
2023/01/11 10:22:08;;;;;;;1.23;0.90;;;11.50;78.30;;;;;;4984359;28;20948;-77
2023/01/11 10:24:51;;;;;;;2.13;1.20;;;11.50;78.10;;;;;;5004004;28;20464;-77
2023/01/11 10:27:26;;;;;;;2.17;1.00;;;11.50;78.10;;;;;;4997995;28;20480;-78
2023/01/11 10:30:10;;;;;;;1.17;1.00;;;11.60;78.10;;;;;;4994260;28;20437;-78
2023/01/11 10:38:49;;;;;;;1.43;0.90;;;11.60;78.10;;;;;;4998382;28;20437;-78
2023/01/11 10:41:32;;;;;;;2.43;1.13;;;11.60;78.30;;;;;;5000494;28;20425;-78
2023/01/11 10:44:17;;;;;;;1.80;1.17;;;11.60;78.10;;;;;;5022108;28;20510;-76
2023/01/11 10:46:48;;;;;;;2.07;1.10;;;11.60;78.00;;;;;;5028257;28;20458;-78
2023/01/11 10:49:27;;;;;;;1.20;0.90;;;11.60;78.00;;;;;;5031164;28;20495;-78
2023/01/11 10:51:57;;;;;;;2.17;1.20;;;11.60;78.00;;;;;;5023804;28;20456;-78
2023/01/11 10:54:31;;;;;;;4.07;1.50;;;11.60;78.10;;;;;;5027466;28;20432;-78
2023/01/11 10:57:24;;;;;;;1.60;1.10;;;11.70;78.10;;;;;;5028423;28;20473;-79
2023/01/11 11:00:11;;;;;;;3.07;1.30;;;11.70;78.30;;;;;;5029200;28;20455;-78
2023/01/11 11:03:15;;;;;;;1.67;0.80;;;11.70;78.30;;;;;;5026695;28;20493;-79
2023/01/11 11:05:51;;;;;;;2.73;1.50;;;11.70;78.40;;;;;;5024735;28;20439;-80
2023/01/11 11:08:32;;;;;;;1.80;1.00;;;11.70;78.40;;;;;;5029142;28;20455;-78
2023/01/11 11:11:03;;;;;;;1.77;1.20;;;11.60;78.90;;;;;;5027724;28;20467;-78
2023/01/11 11:13:38;;;;;;;1.87;1.40;;;11.70;78.90;;;;;;5028032;28;20428;-77
2023/01/11 11:16:18;;;;;;;2.13;1.17;;;11.70;79.00;;;;;;5025466;28;20503;-77
2023/01/11 11:18:44;;;;;;;2.40;1.30;;;11.60;79.20;;;;;;5033536;28;20451;-75
2023/01/11 11:21:20;;;;;;;2.30;1.10;;;11.70;79.60;;;;;;5046001;28;20416;-76
2023/01/11 11:23:58;;;;;;;2.27;1.33;;;11.70;79.70;;;;;;5038991;28;20191;-76
2023/01/11 11:26:30;;;;;;;1.70;1.10;;;11.70;80.00;;;;;;5039035;28;20558;-74
2023/01/11 11:29:02;;;;;;;0.90;0.80;;;11.60;80.50;;;;;;5032568;28;20424;-75
2023/01/11 11:31:28;;;;;;;1.90;1.10;;;11.60;80.60;;;;;;5026161;28;20470;-74
2023/01/11 11:33:55;;;;;;;2.17;1.20;;;11.60;81.10;;;;;;5033875;28;20424;-76
2023/01/11 11:36:23;;;;;;;2.17;1.13;;;11.60;80.90;;;;;;5031210;28;20456;-74
2023/01/11 11:39:17;;;;;;;1.97;1.30;;;11.60;80.60;;;;;;5036196;28;20426;-77
2023/01/11 11:41:51;;;;;;;5.20;1.70;;;11.70;80.80;;;;;;5040589;28;20427;-76
2023/01/11 11:44:23;;;;;;;1.77;1.00;;;11.80;80.60;;;;;;5052946;28;20426;-75
2023/01/11 11:47:21;;;;;;;1.97;0.93;;;11.80;80.50;;;;;;5044812;28;20464;-75
2023/01/11 11:49:46;;;;;;;2.20;1.20;;;11.80;80.80;;;;;;5018375;28;20942;-76
2023/01/11 11:52:16;;;;;;;2.10;1.20;;;11.80;81.10;;;;;;5018392;28;20461;-75
2023/01/11 11:54:55;;;;;;;1.33;0.90;;;11.80;81.40;;;;;;5021480;28;21125;-76
2023/01/11 11:57:26;;;;;;;1.30;1.10;;;11.80;81.90;;;;;;5008381;28;21030;-76
2023/01/11 12:00:04;;;;;;;2.03;1.20;;;11.70;82.50;;;;;;5006348;28;20483;-74
2023/01/11 12:02:33;;;;;;;3.30;1.10;;;11.60;83.30;;;;;;5006551;28;20421;-75
2023/01/11 12:05:03;;;;;;;2.73;1.40;;;11.60;84.00;;;;;;5010513;28;20439;-78
2023/01/11 12:07:34;;;;;;;2.00;1.23;;;11.50;84.40;;;;;;5010604;28;20535;-75
2023/01/11 12:10:05;;;;;;;2.53;1.37;;;11.50;84.70;;;;;;5011898;28;20425;-75
2023/01/11 12:12:33;;;;;;;1.63;1.07;;;11.50;84.90;;;;;;5011881;28;20475;-76
2023/01/11 12:15:13;;;;;;;2.23;1.10;;;11.50;85.20;;;;;;5006588;28;20520;-75
2023/01/11 12:17:39;;;;;;;1.80;1.10;;;11.40;85.30;;;;;;5009407;28;20464;-74
2023/01/11 12:20:20;;;;;;;1.17;1.10;;;11.40;85.50;;;;;;5009848;28;20512;-74
2023/01/11 12:22:46;;;;;;;1.33;0.90;;;11.40;85.30;;;;;;5001259;28;20510;-74
2023/01/11 12:25:23;;;;;;;1.30;1.20;;;11.50;85.50;;;;;;5019282;28;20428;-74
2023/01/11 12:28:04;;;;;;;1.37;1.17;;;11.50;85.30;;;;;;5027261;28;20873;-75
2023/01/11 12:30:32;;;;;;;1.83;1.20;;;11.50;85.50;;;;;;5026703;28;20495;-75
2023/01/11 12:33:23;;;;;;;2.90;1.30;;;11.50;85.70;;;;;;5027713;28;21052;-76
2023/01/11 12:36:03;;;;;;;2.50;1.30;;;11.50;86.20;;;;;;5020566;28;20411;-75
2023/01/11 12:38:42;;;;;;;2.60;1.33;;;11.50;86.00;;;;;;5030896;28;20890;-75
2023/01/11 12:41:20;;;;;;;1.83;1.30;;;11.50;86.00;;;;;;5030460;28;20419;-75
2023/01/11 12:44:07;;;;;;;2.90;1.10;;;11.50;86.00;;;;;;5026352;28;20426;-76
2023/01/11 12:46:59;;;;;;;1.80;1.30;;;11.60;85.90;;;;;;5019788;28;20463;-74
2023/01/11 12:49:46;;;;;;;3.23;1.27;;;11.60;85.70;;;;;;5025708;28;20482;-77
2023/01/11 12:52:29;;;;;;;2.17;1.20;;;11.60;86.30;;;;;;5026114;28;20471;-75
2023/01/11 12:55:30;;;;;;;1.50;1.37;;;11.50;86.50;;;;;;5030626;28;20411;-77
2023/01/11 12:58:14;;;;;;;2.13;1.17;;;11.50;87.00;;;;;;5025591;28;20498;-77
2023/01/11 13:00:57;;;;;;;1.40;1.07;;;11.50;87.40;;;;;;5025159;28;20427;-75
2023/01/11 13:03:44;;;;;;;1.87;1.60;;;11.40;88.10;;;;;;5029670;28;20828;-74
2023/01/11 13:06:21;;;;;;;3.57;1.40;;;11.20;88.90;;;;;;5025026;28;20459;-76
2023/01/11 13:09:10;;;;;;;1.73;1.23;;;11.20;89.50;;;;;;5023526;28;20459;-78
2023/01/11 13:11:53;;;;;;;3.63;1.40;;;11.10;89.90;;;;;;5029182;28;20463;-75
2023/01/11 13:14:22;;;;;;;2.83;1.53;;;11.00;90.20;;;;;;5023676;28;20424;-75
2023/01/11 13:16:50;;;;;;;1.93;1.17;;;11.00;90.40;;;;;;5025029;28;20832;-75
2023/01/11 13:19:24;;;;;;;1.83;1.50;;;11.00;90.50;;;;;;5035654;28;20416;-75
2023/01/11 13:21:52;;;;;;;1.90;1.30;;;11.00;90.70;;;;;;5029996;28;20925;-76
2023/01/11 13:24:25;;;;;;;2.43;0.97;;;11.00;90.80;;;;;;5032715;28;20428;-75
2023/01/11 13:26:53;;;;;;;2.43;1.30;;;11.10;90.80;;;;;;5023663;28;20456;-76
2023/01/11 13:29:31;;;;;;;2.00;1.50;;;11.00;90.60;;;;;;5033167;28;20428;-76
2023/01/11 13:32:05;;;;;;;7.13;1.90;;;11.00;90.80;;;;;;5030847;28;20470;-75
2023/01/11 13:35:00;;;;;;;2.30;1.47;;;11.00;91.00;;;;;;5028007;28;20420;-77
2023/01/11 13:37:25;;;;;;;5.27;1.30;;;11.00;91.10;;;;;;5025286;28;20464;-77
2023/01/11 13:40:01;;;;;;;1.90;1.30;;;11.00;91.20;;;;;;5030890;28;20450;-75
2023/01/11 13:42:36;;;;;;;1.87;1.37;;;11.00;91.30;;;;;;5028513;28;20710;-76
2023/01/11 13:45:16;;;;;;;2.40;1.63;;;11.10;91.40;;;;;;5027569;28;20499;-75